sensor_id;sensor_type;location;lat;lon;timestamp;pressure;altitude;pressure_sealevel;temperature;humidity
20111;BME280;10216;42.658;23.248;2023-06-26T13:48:47;93508.94;;;28.16;47.00
20111;BME280;10216;42.658;23.248;2023-06-26T13:51:13;93505.00;;;28.08;46.57
20111;BME280;10216;42.658;23.248;2023-06-26T13:53:38;93509.94;;;27.86;47.48
20111;BME280;10216;42.658;23.248;2023-06-26T13:56:04;93503.44;;;27.73;47.48
20111;BME280;10216;42.658;23.248;2023-06-26T13:58:30;93507.97;;;27.13;47.89
20111;BME280;10216;42.658;23.248;2023-06-26T14:00:57;93515.72;;;26.69;49.54
20111;BME280;10216;42.658;23.248;2023-06-26T14:03:23;93512.09;;;26.45;50.85
20111;BME280;10216;42.658;23.248;2023-06-26T14:05:48;93512.63;;;26.01;51.24
20111;BME280;10216;42.658;23.248;2023-06-26T14:08:14;93514.72;;;25.79;51.44
20111;BME280;10216;42.658;23.248;2023-06-26T14:13:12;93504.38;;;25.32;52.41
20111;BME280;10216;42.658;23.248;2023-06-26T14:15:40;93509.66;;;25.57;54.61
20111;BME280;10216;42.658;23.248;2023-06-26T14:18:06;93497.88;;;25.60;55.84
20111;BME280;10216;42.658;23.248;2023-06-26T14:20:32;93504.22;;;25.69;51.40
20111;BME280;10216;42.658;23.248;2023-06-26T14:22:58;93504.50;;;25.78;53.17
20111;BME280;10216;42.658;23.248;2023-06-26T14:25:24;93501.00;;;25.47;54.27
20111;BME280;10216;42.658;23.248;2023-06-26T14:27:49;93500.44;;;25.35;52.87
20111;BME280;10216;42.658;23.248;2023-06-26T14:30:14;93498.81;;;25.18;55.30
20111;BME280;10216;42.658;23.248;2023-06-26T14:32:40;93490.94;;;25.13;55.59
20111;BME280;10216;42.658;23.248;2023-06-26T14:35:06;93498.81;;;25.13;57.08
20111;BME280;10216;42.658;23.248;2023-06-26T14:37:31;93496.75;;;25.20;53.29
20111;BME280;10216;42.658;23.248;2023-06-26T14:39:57;93491.44;;;25.15;54.16
20111;BME280;10216;42.658;23.248;2023-06-26T14:42:24;93491.50;;;25.25;52.69
20111;BME280;10216;42.658;23.248;2023-06-26T14:44:50;93495.19;;;25.40;53.57
20111;BME280;10216;42.658;23.248;2023-06-26T14:47:19;93491.59;;;25.71;54.05
20111;BME280;10216;42.658;23.248;2023-06-26T14:49:44;93494.47;;;26.30;51.69
20111;BME280;10216;42.658;23.248;2023-06-26T14:52:11;93491.53;;;26.52;50.42
20111;BME280;10216;42.658;23.248;2023-06-26T14:54:36;93497.34;;;26.49;51.98
20111;BME280;10216;42.658;23.248;2023-06-26T14:57:06;93487.91;;;26.33;51.13
20111;BME280;10216;42.658;23.248;2023-06-26T14:59:31;93497.63;;;26.17;51.24
20111;BME280;10216;42.658;23.248;2023-06-26T15:02:00;93494.75;;;25.93;51.55
20111;BME280;10216;42.658;23.248;2023-06-26T15:04:25;93493.16;;;25.72;52.19
20111;BME280;10216;42.658;23.248;2023-06-26T15:06:52;93492.31;;;25.51;52.60
20111;BME280;10216;42.658;23.248;2023-06-26T15:09:17;93492.06;;;25.48;52.35
20111;BME280;10216;42.658;23.248;2023-06-26T15:11:43;93495.22;;;25.50;54.53
20111;BME280;10216;42.658;23.248;2023-06-26T15:14:08;93498.38;;;25.42;57.74
20111;BME280;10216;42.658;23.248;2023-06-26T15:16:34;93502.34;;;24.77;57.82
20111;BME280;10216;42.658;23.248;2023-06-26T15:18:59;93503.47;;;24.91;58.29
20111;BME280;10216;42.658;23.248;2023-06-26T15:21:26;93506.16;;;24.59;60.74
20111;BME280;10216;42.658;23.248;2023-06-26T15:23:51;93501.31;;;24.36;61.17
20111;BME280;10216;42.658;23.248;2023-06-26T15:31:28;93504.31;;;24.12;63.67
20111;BME280;10216;42.658;23.248;2023-06-26T15:33:54;93507.09;;;24.33;64.17
20111;BME280;10216;42.658;23.248;2023-06-26T15:36:20;93502.50;;;24.18;64.41
20111;BME280;10216;42.658;23.248;2023-06-26T15:38:45;93500.13;;;24.59;62.57
20111;BME280;10216;42.658;23.248;2023-06-26T15:41:11;93500.75;;;24.81;62.11
20111;BME280;10216;42.658;23.248;2023-06-26T15:43:36;93501.41;;;25.03;61.42
20111;BME280;10216;42.658;23.248;2023-06-26T15:46:01;93504.59;;;25.10;61.66
20111;BME280;10216;42.658;23.248;2023-06-26T15:48:27;93496.66;;;25.00;61.83
20111;BME280;10216;42.658;23.248;2023-06-26T15:50:53;93501.94;;;24.53;59.88
20111;BME280;10216;42.658;23.248;2023-06-26T15:53:19;93491.72;;;24.57;62.27
20111;BME280;10216;42.658;23.248;2023-06-26T15:55:44;93495.00;;;24.32;62.63
20111;BME280;10216;42.658;23.248;2023-06-26T15:58:10;93498.84;;;24.19;62.03
20111;BME280;10216;42.658;23.248;2023-06-26T16:00:35;93492.94;;;24.07;61.68
20111;BME280;10216;42.658;23.248;2023-06-26T16:03:00;93495.56;;;24.07;62.96
20111;BME280;10216;42.658;23.248;2023-06-26T16:05:26;93494.94;;;23.90;64.34
20111;BME280;10216;42.658;23.248;2023-06-26T16:07:51;93493.31;;;23.84;61.03
20111;BME280;10216;42.658;23.248;2023-06-26T16:10:16;93485.28;;;23.95;63.89
20111;BME280;10216;42.658;23.248;2023-06-26T16:12:42;93488.38;;;23.92;66.11
20111;BME280;10216;42.658;23.248;2023-06-26T16:15:07;93483.13;;;23.87;61.99
20111;BME280;10216;42.658;23.248;2023-06-26T16:17:33;93490.44;;;23.85;65.18
20111;BME280;10216;42.658;23.248;2023-06-26T16:19:58;93494.16;;;23.89;65.92
20111;BME280;10216;42.658;23.248;2023-06-26T16:22:23;93495.69;;;23.85;66.49
20111;BME280;10216;42.658;23.248;2023-06-26T16:24:49;93494.00;;;23.69;69.63
20111;BME280;10216;42.658;23.248;2023-06-26T16:27:14;93500.75;;;23.65;64.21
20111;BME280;10216;42.658;23.248;2023-06-26T16:29:39;93501.28;;;23.62;65.30
20111;BME280;10216;42.658;23.248;2023-06-26T16:32:07;93507.13;;;23.47;66.08
20111;BME280;10216;42.658;23.248;2023-06-26T16:34:32;93502.81;;;23.09;68.91
20111;BME280;10216;42.658;23.248;2023-06-26T16:36:58;93498.41;;;22.71;70.40
20111;BME280;10216;42.658;23.248;2023-06-26T16:39:25;93503.97;;;22.36;76.12
20111;BME280;10216;42.658;23.248;2023-06-26T16:41:50;93505.28;;;22.17;78.00
20111;BME280;10216;42.658;23.248;2023-06-26T16:44:22;93502.91;;;21.82;74.83
20111;BME280;10216;42.658;23.248;2023-06-26T16:46:47;93502.34;;;21.80;77.28
20111;BME280;10216;42.658;23.248;2023-06-26T16:49:13;93504.97;;;21.97;74.71
20111;BME280;10216;42.658;23.248;2023-06-26T16:51:38;93506.47;;;22.09;75.66
20111;BME280;10216;42.658;23.248;2023-06-26T16:54:04;93512.25;;;22.11;73.37
20111;BME280;10216;42.658;23.248;2023-06-26T16:56:29;93508.28;;;22.09;72.62
20111;BME280;10216;42.658;23.248;2023-06-26T16:58:55;93509.22;;;22.19;72.82
20111;BME280;10216;42.658;23.248;2023-06-26T17:01:21;93520.88;;;22.29;72.28
20111;BME280;10216;42.658;23.248;2023-06-26T17:03:46;93514.75;;;22.40;73.88
20111;BME280;10216;42.658;23.248;2023-06-26T17:06:12;93524.59;;;22.33;72.68
20111;BME280;10216;42.658;23.248;2023-06-26T17:08:37;93512.47;;;22.27;75.19
20111;BME280;10216;42.658;23.248;2023-06-26T17:11:02;93512.28;;;22.33;73.29
20111;BME280;10216;42.658;23.248;2023-06-26T17:13:28;93523.13;;;22.42;74.64
20111;BME280;10216;42.658;23.248;2023-06-26T17:15:54;93510.97;;;22.31;73.25
20111;BME280;10216;42.658;23.248;2023-06-26T17:18:19;93514.44;;;22.36;72.85
20111;BME280;10216;42.658;23.248;2023-06-26T17:20:45;93521.44;;;22.31;72.11
20111;BME280;10216;42.658;23.248;2023-06-26T17:23:10;93513.81;;;22.29;71.30
20111;BME280;10216;42.658;23.248;2023-06-26T17:25:36;93526.16;;;22.34;68.51
20111;BME280;10216;42.658;23.248;2023-06-26T17:28:01;93528.06;;;22.38;67.57
20111;BME280;10216;42.658;23.248;2023-06-26T17:30:27;93526.50;;;22.37;65.09
20111;BME280;10216;42.658;23.248;2023-06-26T17:32:52;93537.50;;;22.39;67.18
20111;BME280;10216;42.658;23.248;2023-06-26T17:35:19;93539.56;;;22.37;65.50
20111;BME280;10216;42.658;23.248;2023-06-26T17:37:45;93538.31;;;22.40;66.21
20111;BME280;10216;42.658;23.248;2023-06-26T17:40:10;93540.03;;;22.34;66.22
20111;BME280;10216;42.658;23.248;2023-06-26T17:42:36;93541.16;;;22.38;66.01
20111;BME280;10216;42.658;23.248;2023-06-26T17:45:07;93553.69;;;22.36;66.05
20111;BME280;10216;42.658;23.248;2023-06-26T17:47:33;93554.88;;;22.29;66.04
20111;BME280;10216;42.658;23.248;2023-06-26T17:49:59;93555.03;;;22.39;65.54
20111;BME280;10216;42.658;23.248;2023-06-26T17:52:24;93562.78;;;22.34;66.07
20111;BME280;10216;42.658;23.248;2023-06-26T17:54:49;93563.59;;;22.17;65.72
20111;BME280;10216;42.658;23.248;2023-06-26T17:57:15;93571.47;;;22.17;66.97
20111;BME280;10216;42.658;23.248;2023-06-26T17:59:40;93570.72;;;22.22;66.61
20111;BME280;10216;42.658;23.248;2023-06-26T18:02:06;93570.03;;;22.10;64.89
20111;BME280;10216;42.658;23.248;2023-06-26T18:04:32;93565.34;;;22.12;65.85
20111;BME280;10216;42.658;23.248;2023-06-26T18:06:58;93565.97;;;22.02;67.40
20111;BME280;10216;42.658;23.248;2023-06-26T18:09:23;93570.56;;;22.12;66.06
20111;BME280;10216;42.658;23.248;2023-06-26T18:11:49;93584.34;;;22.07;65.58
20111;BME280;10216;42.658;23.248;2023-06-26T18:14:14;93588.41;;;22.15;67.01
20111;BME280;10216;42.658;23.248;2023-06-26T18:16:40;93592.84;;;22.14;66.23
20111;BME280;10216;42.658;23.248;2023-06-26T18:19:06;93596.41;;;22.08;66.65
20111;BME280;10216;42.658;23.248;2023-06-26T18:21:31;93591.97;;;22.09;67.10
20111;BME280;10216;42.658;23.248;2023-06-26T18:23:57;93598.09;;;21.86;66.65
20111;BME280;10216;42.658;23.248;2023-06-26T18:26:23;93595.47;;;21.86;67.76
20111;BME280;10216;42.658;23.248;2023-06-26T18:28:49;93596.50;;;21.85;68.07
20111;BME280;10216;42.658;23.248;2023-06-26T18:31:16;93606.66;;;21.81;67.97
20111;BME280;10216;42.658;23.248;2023-06-26T18:33:42;93609.00;;;21.66;67.90
20111;BME280;10216;42.658;23.248;2023-06-26T18:36:08;93611.84;;;21.65;69.51
20111;BME280;10216;42.658;23.248;2023-06-26T18:38:34;93608.34;;;21.59;69.23
20111;BME280;10216;42.658;23.248;2023-06-26T18:41:00;93606.41;;;21.55;71.27
20111;BME280;10216;42.658;23.248;2023-06-26T18:43:26;93610.19;;;21.47;71.33
20111;BME280;10216;42.658;23.248;2023-06-26T18:45:52;93617.06;;;21.13;76.87
20111;BME280;10216;42.658;23.248;2023-06-26T18:48:17;93625.41;;;20.87;80.28
20111;BME280;10216;42.658;23.248;2023-06-26T18:50:43;93640.28;;;20.63;83.87
20111;BME280;10216;42.658;23.248;2023-06-26T18:53:08;93643.78;;;20.04;85.84
20111;BME280;10216;42.658;23.248;2023-06-26T18:55:34;93642.34;;;19.48;92.22
20111;BME280;10216;42.658;23.248;2023-06-26T18:58:00;93654.06;;;19.02;96.27
20111;BME280;10216;42.658;23.248;2023-06-26T19:00:31;93652.19;;;18.91;100.00
20111;BME280;10216;42.658;23.248;2023-06-26T19:02:57;93667.06;;;18.84;100.00
20111;BME280;10216;42.658;23.248;2023-06-26T19:05:23;93664.66;;;18.64;100.00
20111;BME280;10216;42.658;23.248;2023-06-26T19:07:49;93659.13;;;18.54;100.00
20111;BME280;10216;42.658;23.248;2023-06-26T19:10:15;93666.66;;;18.38;100.00
20111;BME280;10216;42.658;23.248;2023-06-26T19:12:45;93669.69;;;18.34;100.00
20111;BME280;10216;42.658;23.248;2023-06-26T19:15:19;93667.13;;;18.28;100.00
20111;BME280;10216;42.658;23.248;2023-06-26T19:17:44;93670.00;;;18.20;100.00
20111;BME280;10216;42.658;23.248;2023-06-26T19:20:10;93662.25;;;18.13;100.00
20111;BME280;10216;42.658;23.248;2023-06-26T19:22:36;93661.50;;;18.06;100.00
20111;BME280;10216;42.658;23.248;2023-06-26T19:25:02;93659.94;;;17.99;100.00
20111;BME280;10216;42.658;23.248;2023-06-26T19:27:28;93670.47;;;18.10;100.00
20111;BME280;10216;42.658;23.248;2023-06-26T19:29:54;93667.44;;;18.13;100.00
20111;BME280;10216;42.658;23.248;2023-06-26T19:32:19;93663.84;;;18.14;100.00
20111;BME280;10216;42.658;23.248;2023-06-26T19:34:44;93672.06;;;18.11;100.00
20111;BME280;10216;42.658;23.248;2023-06-26T19:37:10;93660.81;;;18.17;100.00
20111;BME280;10216;42.658;23.248;2023-06-26T19:39:37;93674.13;;;18.27;100.00
20111;BME280;10216;42.658;23.248;2023-06-26T19:42:02;93659.91;;;18.30;100.00
20111;BME280;10216;42.658;23.248;2023-06-26T19:44:28;93666.28;;;18.34;100.00
20111;BME280;10216;42.658;23.248;2023-06-26T19:46:56;93664.78;;;18.45;100.00
20111;BME280;10216;42.658;23.248;2023-06-26T19:49:22;93662.38;;;18.50;100.00
20111;BME280;10216;42.658;23.248;2023-06-26T19:51:48;93666.97;;;18.48;100.00
20111;BME280;10216;42.658;23.248;2023-06-26T20:07:22;93668.41;;;18.68;100.00
20111;BME280;10216;42.658;23.248;2023-06-26T20:09:50;93658.50;;;18.59;100.00
20111;BME280;10216;42.658;23.248;2023-06-26T20:12:15;93669.34;;;18.56;100.00
20111;BME280;10216;42.658;23.248;2023-06-26T20:14:41;93670.16;;;18.50;100.00
20111;BME280;10216;42.658;23.248;2023-06-26T20:17:06;93668.44;;;18.37;100.00
20111;BME280;10216;42.658;23.248;2023-06-26T20:19:31;93675.84;;;18.40;100.00
20111;BME280;10216;42.658;23.248;2023-06-26T20:21:57;93666.13;;;18.29;100.00
20111;BME280;10216;42.658;23.248;2023-06-26T20:24:22;93667.28;;;18.33;100.00
20111;BME280;10216;42.658;23.248;2023-06-26T20:26:48;93670.41;;;18.17;100.00
20111;BME280;10216;42.658;23.248;2023-06-26T20:29:13;93673.25;;;18.15;100.00
20111;BME280;10216;42.658;23.248;2023-06-26T20:31:39;93666.50;;;18.01;100.00
20111;BME280;10216;42.658;23.248;2023-06-26T20:34:04;93669.75;;;17.97;100.00
20111;BME280;10216;42.658;23.248;2023-06-26T20:36:30;93680.78;;;17.92;100.00
20111;BME280;10216;42.658;23.248;2023-06-26T20:38:56;93677.13;;;18.00;100.00
20111;BME280;10216;42.658;23.248;2023-06-26T20:41:22;93665.41;;;17.90;100.00
20111;BME280;10216;42.658;23.248;2023-06-26T20:43:48;93672.28;;;17.78;100.00
20111;BME280;10216;42.658;23.248;2023-06-26T20:46:15;93671.72;;;17.70;100.00
20111;BME280;10216;42.658;23.248;2023-06-26T20:48:43;93672.31;;;17.72;100.00
20111;BME280;10216;42.658;23.248;2023-06-26T20:51:08;93673.06;;;17.79;100.00
20111;BME280;10216;42.658;23.248;2023-06-26T20:53:35;93669.72;;;17.65;100.00
20111;BME280;10216;42.658;23.248;2023-06-26T20:56:00;93670.94;;;17.63;100.00
20111;BME280;10216;42.658;23.248;2023-06-26T20:58:26;93671.53;;;17.58;100.00
20111;BME280;10216;42.658;23.248;2023-06-26T21:00:51;93676.16;;;17.63;100.00
20111;BME280;10216;42.658;23.248;2023-06-26T21:03:18;93675.56;;;17.54;100.00
20111;BME280;10216;42.658;23.248;2023-06-26T21:05:43;93675.78;;;17.46;100.00
20111;BME280;10216;42.658;23.248;2023-06-26T21:08:08;93672.03;;;17.42;100.00
20111;BME280;10216;42.658;23.248;2023-06-26T21:10:34;93668.84;;;17.33;100.00
20111;BME280;10216;42.658;23.248;2023-06-26T21:12:59;93676.25;;;17.23;100.00
20111;BME280;10216;42.658;23.248;2023-06-26T21:15:25;93673.47;;;17.25;100.00
20111;BME280;10216;42.658;23.248;2023-06-26T21:17:51;93678.47;;;17.26;100.00
20111;BME280;10216;42.658;23.248;2023-06-26T21:20:16;93669.84;;;17.32;100.00
20111;BME280;10216;42.658;23.248;2023-06-26T21:22:42;93675.66;;;17.28;100.00
20111;BME280;10216;42.658;23.248;2023-06-26T21:25:07;93687.03;;;17.33;100.00
20111;BME280;10216;42.658;23.248;2023-06-26T21:27:33;93683.22;;;17.36;100.00
20111;BME280;10216;42.658;23.248;2023-06-26T21:29:59;93686.78;;;17.41;100.00
20111;BME280;10216;42.658;23.248;2023-06-26T21:32:24;93669.25;;;17.30;100.00
20111;BME280;10216;42.658;23.248;2023-06-26T21:34:49;93678.88;;;17.23;100.00
20111;BME280;10216;42.658;23.248;2023-06-26T21:37:15;93685.63;;;17.31;100.00
20111;BME280;10216;42.658;23.248;2023-06-26T21:39:40;93684.06;;;17.16;100.00
20111;BME280;10216;42.658;23.248;2023-06-26T21:42:07;93684.09;;;17.10;100.00
20111;BME280;10216;42.658;23.248;2023-06-26T21:44:33;93686.09;;;17.08;100.00
20111;BME280;10216;42.658;23.248;2023-06-26T21:46:58;93685.28;;;17.07;100.00
20111;BME280;10216;42.658;23.248;2023-06-26T21:49:24;93682.50;;;17.09;100.00
20111;BME280;10216;42.658;23.248;2023-06-26T21:51:49;93676.50;;;17.08;100.00
20111;BME280;10216;42.658;23.248;2023-06-26T21:54:15;93672.72;;;17.11;100.00
20111;BME280;10216;42.658;23.248;2023-06-26T21:56:40;93682.44;;;17.22;100.00
20111;BME280;10216;42.658;23.248;2023-06-26T21:59:05;93673.09;;;17.21;100.00
20111;BME280;10216;42.658;23.248;2023-06-26T22:01:31;93672.50;;;17.19;100.00
20111;BME280;10216;42.658;23.248;2023-06-26T22:03:56;93666.91;;;17.15;100.00
20111;BME280;10216;42.658;23.248;2023-06-26T22:06:21;93675.28;;;17.24;100.00
20111;BME280;10216;42.658;23.248;2023-06-26T22:08:47;93672.31;;;17.14;100.00
20111;BME280;10216;42.658;23.248;2023-06-26T22:11:12;93680.13;;;17.14;100.00
20111;BME280;10216;42.658;23.248;2023-06-26T22:13:38;93670.13;;;17.11;100.00
20111;BME280;10216;42.658;23.248;2023-06-26T22:16:03;93669.34;;;17.10;100.00
20111;BME280;10216;42.658;23.248;2023-06-26T22:18:29;93668.34;;;17.05;100.00
20111;BME280;10216;42.658;23.248;2023-06-26T22:20:54;93668.19;;;17.00;100.00
20111;BME280;10216;42.658;23.248;2023-06-26T22:23:20;93666.38;;;16.94;100.00
20111;BME280;10216;42.658;23.248;2023-06-26T22:25:45;93666.19;;;16.95;100.00
20111;BME280;10216;42.658;23.248;2023-06-26T22:28:11;93672.97;;;16.96;100.00
20111;BME280;10216;42.658;23.248;2023-06-26T22:30:36;93668.78;;;16.89;100.00
20111;BME280;10216;42.658;23.248;2023-06-26T22:33:01;93676.59;;;16.82;100.00
20111;BME280;10216;42.658;23.248;2023-06-26T22:35:27;93673.81;;;16.77;100.00
20111;BME280;10216;42.658;23.248;2023-06-26T22:37:52;93679.78;;;16.77;100.00
20111;BME280;10216;42.658;23.248;2023-06-26T22:40:36;93683.38;;;16.76;100.00
20111;BME280;10216;42.658;23.248;2023-06-26T22:43:01;93677.97;;;16.71;100.00
20111;BME280;10216;42.658;23.248;2023-06-26T22:45:31;93676.63;;;16.69;100.00
20111;BME280;10216;42.658;23.248;2023-06-26T22:47:57;93671.63;;;16.67;100.00
20111;BME280;10216;42.658;23.248;2023-06-26T22:50:22;93672.44;;;16.61;100.00
20111;BME280;10216;42.658;23.248;2023-06-26T22:52:48;93673.44;;;16.60;100.00
20111;BME280;10216;42.658;23.248;2023-06-26T22:55:13;93667.41;;;16.60;100.00
20111;BME280;10216;42.658;23.248;2023-06-26T22:57:39;93664.44;;;16.56;100.00
20111;BME280;10216;42.658;23.248;2023-06-26T23:00:05;93665.66;;;16.60;100.00
20111;BME280;10216;42.658;23.248;2023-06-26T23:02:35;93675.81;;;16.55;100.00
20111;BME280;10216;42.658;23.248;2023-06-26T23:05:01;93672.41;;;16.55;100.00
20111;BME280;10216;42.658;23.248;2023-06-26T23:07:27;93669.41;;;16.51;100.00
20111;BME280;10216;42.658;23.248;2023-06-26T23:09:52;93677.00;;;16.46;100.00
20111;BME280;10216;42.658;23.248;2023-06-26T23:12:17;93676.59;;;16.42;100.00
20111;BME280;10216;42.658;23.248;2023-06-26T23:14:43;93666.25;;;16.49;100.00
20111;BME280;10216;42.658;23.248;2023-06-26T23:17:08;93666.25;;;16.49;100.00
20111;BME280;10216;42.658;23.248;2023-06-26T23:19:38;93670.63;;;16.49;100.00
20111;BME280;10216;42.658;23.248;2023-06-26T23:22:05;93664.44;;;16.43;100.00
20111;BME280;10216;42.658;23.248;2023-06-26T23:24:35;93665.44;;;16.42;100.00
20111;BME280;10216;42.658;23.248;2023-06-26T23:27:02;93658.25;;;16.44;100.00
20111;BME280;10216;42.658;23.248;2023-06-26T23:29:27;93668.44;;;16.39;100.00
20111;BME280;10216;42.658;23.248;2023-06-26T23:31:53;93665.84;;;16.39;100.00
20111;BME280;10216;42.658;23.248;2023-06-26T23:34:18;93674.22;;;16.28;100.00
20111;BME280;10216;42.658;23.248;2023-06-26T23:36:47;93678.59;;;16.34;100.00
20111;BME280;10216;42.658;23.248;2023-06-26T23:39:19;93679.78;;;16.38;100.00
20111;BME280;10216;42.658;23.248;2023-06-26T23:41:45;93679.78;;;16.38;100.00
20111;BME280;10216;42.658;23.248;2023-06-26T23:44:14;93675.59;;;16.37;100.00
20111;BME280;10216;42.658;23.248;2023-06-26T23:46:46;93675.03;;;16.35;100.00
20111;BME280;10216;42.658;23.248;2023-06-26T23:49:12;93673.41;;;16.34;100.00
20111;BME280;10216;42.658;23.248;2023-06-26T23:51:37;93672.63;;;16.27;100.00
20111;BME280;10216;42.658;23.248;2023-06-26T23:54:03;93664.25;;;16.25;100.00
20111;BME280;10216;42.658;23.248;2023-06-26T23:56:30;93666.44;;;16.28;100.00
20111;BME280;10216;42.658;23.248;2023-06-26T23:58:55;93665.25;;;16.24;100.00
